Time;durP1;ratioP1;P1;durP2;ratioP2;P2;SDS_P1;SDS_P2;PMS_P1;PMS_P2;Temp;Humidity;BMP_temperature;BMP_pressure;BME280_temperature;BME280_humidity;BME280_pressure;Samples;Min_cycle;Max_cycle;Signal;HPM_P1;HPM_P2
2022/02/13 00:00:52;;;;;;;22.33;12.50;;;-1.10;96.30;;;;;;4995009;28;20420;-76
2022/02/13 00:03:17;;;;;;;11.87;6.30;;;-1.10;96.30;;;;;;4977561;28;20420;-77
2022/02/13 00:05:43;;;;;;;13.23;7.10;;;-1.20;96.30;;;;;;4977262;28;20629;-77
2022/02/13 00:08:08;;;;;;;9.73;6.27;;;-1.20;96.30;;;;;;4977521;28;20178;-77
2022/02/13 00:10:34;;;;;;;12.30;7.30;;;-1.20;96.30;;;;;;4977328;28;20173;-77
2022/02/13 00:13:00;;;;;;;10.00;6.63;;;-1.30;96.30;;;;;;4995580;28;20638;-80
2022/02/13 00:15:26;;;;;;;5.53;4.27;;;-1.30;96.30;;;;;;4994769;28;20424;-79
2022/02/13 00:17:51;;;;;;;10.27;6.50;;;-1.30;96.30;;;;;;4996666;28;20216;-80
2022/02/13 00:20:17;;;;;;;5.10;4.10;;;-1.30;96.30;;;;;;4980128;28;20621;-77
2022/02/13 00:33:04;;;;;;;10.20;4.60;;;-1.20;96.30;;;;;;5065861;23;20484;-77
2022/02/13 00:35:29;;;;;;;6.83;5.00;;;-1.20;96.30;;;;;;4996068;28;20432;-78
2022/02/13 00:37:55;;;;;;;13.60;7.00;;;-1.40;96.30;;;;;;4996250;28;20291;-78
2022/02/13 00:40:20;;;;;;;12.00;6.43;;;-1.50;96.30;;;;;;5014094;28;20192;-77
2022/02/13 00:42:46;;;;;;;7.57;5.10;;;-1.50;96.30;;;;;;4996410;28;20185;-77
2022/02/13 00:45:12;;;;;;;7.57;5.63;;;-1.60;96.30;;;;;;5016177;28;20169;-79
2022/02/13 00:47:38;;;;;;;10.40;6.20;;;-1.60;96.30;;;;;;4998839;28;20184;-79
2022/02/13 00:50:04;;;;;;;12.67;6.20;;;-1.60;96.30;;;;;;5016583;28;20181;-79
2022/02/13 00:52:32;;;;;;;7.43;5.33;;;-1.60;96.30;;;;;;5015527;28;20447;-79
2022/02/13 00:54:58;;;;;;;8.50;5.87;;;-1.70;96.30;;;;;;5015799;28;20411;-79
2022/02/13 00:57:23;;;;;;;7.37;5.90;;;-1.80;96.30;;;;;;4997487;28;20455;-79
2022/02/13 00:59:49;;;;;;;9.73;6.40;;;-1.70;96.30;;;;;;5015756;28;20248;-79
2022/02/13 05:00:28;;;;;;;5.53;3.20;;;-2.40;96.30;;;;;;5950023;23;21183;-76
2022/02/13 05:02:54;;;;;;;6.20;4.13;;;-2.40;96.30;;;;;;5012808;28;20494;-77
2022/02/13 05:05:19;;;;;;;7.30;3.80;;;-2.40;96.30;;;;;;5012697;28;20168;-76
2022/02/13 05:07:45;;;;;;;5.27;3.20;;;-2.40;96.30;;;;;;4995718;28;20191;-76
2022/02/13 05:10:11;;;;;;;5.90;3.70;;;-2.50;96.30;;;;;;4995104;28;20546;-76
2022/02/13 05:12:37;;;;;;;5.03;3.70;;;-2.60;96.30;;;;;;4976038;28;20529;-75
2022/02/13 05:15:03;;;;;;;6.67;3.90;;;-2.60;96.30;;;;;;4995407;28;20443;-79
2022/02/13 05:17:29;;;;;;;6.40;3.00;;;-2.50;96.30;;;;;;4981969;28;20645;-79
2022/02/13 05:19:54;;;;;;;3.50;3.20;;;-2.50;96.30;;;;;;5003097;28;20176;-78
2022/02/13 05:37:52;;;;;;;8.97;3.70;;;-3.00;96.30;;;;;;6142921;23;20450;-78
2022/02/13 05:40:18;;;;;;;6.90;3.30;;;-3.00;96.30;;;;;;5009233;28;20482;-79
2022/02/13 05:42:44;;;;;;;6.00;3.40;;;-3.10;96.30;;;;;;4996779;28;20818;-79
2022/02/13 05:45:10;;;;;;;4.93;3.87;;;-3.20;96.30;;;;;;4996725;28;20176;-78
2022/02/13 05:47:36;;;;;;;6.60;4.47;;;-3.20;96.30;;;;;;4998569;28;20664;-78
2022/02/13 05:50:01;;;;;;;11.07;6.17;;;-3.10;96.30;;;;;;4997494;28;20173;-79
2022/02/13 05:52:27;;;;;;;6.50;4.50;;;-3.00;96.30;;;;;;5015268;28;20246;-78
2022/02/13 05:54:53;;;;;;;11.90;3.80;;;-3.00;96.30;;;;;;4996620;28;20203;-79
2022/02/13 05:57:18;;;;;;;67.57;29.67;;;-2.80;96.30;;;;;;4996681;28;20571;-80
2022/02/13 05:59:43;;;;;;;70.50;30.03;;;-2.80;96.30;;;;;;4996768;28;20645;-79
2022/02/13 06:02:09;;;;;;;26.50;9.80;;;-2.80;96.30;;;;;;4996600;28;20189;-79
2022/02/13 06:04:34;;;;;;;8.53;4.53;;;-2.90;96.30;;;;;;4996046;28;20177;-80
2022/02/13 06:07:00;;;;;;;8.20;3.93;;;-2.80;96.30;;;;;;4996685;28;20636;-80
2022/02/13 06:09:25;;;;;;;4.00;3.23;;;-2.80;96.30;;;;;;4996361;28;20185;-78
2022/02/13 06:11:51;;;;;;;7.43;3.50;;;-2.70;96.30;;;;;;4996414;28;20238;-80
2022/02/13 06:14:17;;;;;;;4.53;3.53;;;-2.70;96.30;;;;;;4996575;28;20173;-79
2022/02/13 06:16:43;;;;;;;5.80;4.53;;;-2.70;96.30;;;;;;5002639;28;20668;-79
2022/02/13 06:19:08;;;;;;;4.77;3.90;;;-2.80;96.30;;;;;;5005283;28;20434;-80
2022/02/13 06:21:34;;;;;;;6.10;3.80;;;-2.70;96.30;;;;;;5000326;28;20231;-80
2022/02/13 06:24:00;;;;;;;9.70;4.30;;;-2.70;96.30;;;;;;4997420;28;20187;-79
2022/02/13 06:26:26;;;;;;;4.20;3.63;;;-2.70;96.30;;;;;;5014640;28;20408;-80
2022/02/13 06:28:52;;;;;;;4.30;3.73;;;-2.60;96.30;;;;;;4998071;28;20226;-80
2022/02/13 06:31:18;;;;;;;7.77;3.17;;;-2.60;96.30;;;;;;4999349;28;20283;-79
2022/02/13 06:33:43;;;;;;;4.87;3.43;;;-2.50;96.30;;;;;;5000543;28;20443;-80
2022/02/13 06:36:09;;;;;;;6.13;3.80;;;-2.50;96.30;;;;;;4997805;28;20640;-78
2022/02/13 06:38:35;;;;;;;6.37;4.13;;;-2.40;96.30;;;;;;5012690;28;20200;-78
2022/02/13 06:41:00;;;;;;;5.20;3.87;;;-2.30;96.30;;;;;;4993636;28;20208;-78
2022/02/13 06:43:26;;;;;;;5.87;3.97;;;-2.10;96.30;;;;;;4994611;28;20801;-78
2022/02/13 06:45:52;;;;;;;4.80;3.70;;;-1.90;96.30;;;;;;4994309;28;20212;-76
2022/02/13 06:48:17;;;;;;;4.10;3.20;;;-1.90;96.30;;;;;;4993822;28;20180;-76
2022/02/13 06:50:43;;;;;;;4.37;3.20;;;-1.90;96.30;;;;;;4994154;28;20737;-76
2022/02/13 06:53:09;;;;;;;3.57;3.00;;;-2.00;96.30;;;;;;5011901;28;20177;-76
2022/02/13 06:55:35;;;;;;;6.63;2.87;;;-2.00;96.30;;;;;;4994380;28;20201;-76
2022/02/13 06:58:00;;;;;;;4.57;3.20;;;-2.00;96.30;;;;;;5012110;28;20487;-78
2022/02/13 07:00:26;;;;;;;5.33;3.33;;;-2.00;96.30;;;;;;4994088;28;20271;-77
2022/02/13 07:02:52;;;;;;;6.37;3.50;;;-1.80;96.30;;;;;;4993928;28;20185;-79
2022/02/13 07:05:19;;;;;;;5.87;3.90;;;-1.10;96.30;;;;;;5012563;28;20547;-79
2022/02/13 07:07:45;;;;;;;4.17;2.80;;;0.00;96.30;;;;;;5015444;28;20189;-79
2022/02/13 07:10:12;;;;;;;4.53;3.27;;;0.80;96.30;;;;;;4997955;28;20949;-79
2022/02/13 07:12:38;;;;;;;6.87;3.70;;;0.80;96.30;;;;;;5015503;28;20644;-77
2022/02/13 07:15:07;;;;;;;5.43;4.17;;;0.60;96.30;;;;;;4997390;28;20783;-77
2022/02/13 07:17:34;;;;;;;5.97;3.70;;;0.20;96.30;;;;;;5015086;28;20831;-76
2022/02/13 07:20:00;;;;;;;6.17;4.30;;;-0.20;96.30;;;;;;4997471;28;20450;-77
2022/02/13 07:22:26;;;;;;;13.20;7.30;;;-0.60;96.30;;;;;;5014868;28;20432;-75
2022/02/13 07:24:51;;;;;;;9.33;4.60;;;-0.70;96.30;;;;;;5014186;28;20787;-75
2022/02/13 07:27:17;;;;;;;10.07;5.27;;;-0.80;96.30;;;;;;5014723;28;20227;-75
2022/02/13 07:29:43;;;;;;;11.20;5.30;;;-0.80;96.30;;;;;;4996962;28;20191;-76
2022/02/13 07:32:08;;;;;;;8.23;4.73;;;-0.80;96.30;;;;;;5014658;28;20590;-78
2022/02/13 07:34:34;;;;;;;8.23;5.63;;;-0.80;96.30;;;;;;4996755;28;20319;-78
2022/02/13 07:37:03;;;;;;;13.47;6.47;;;-0.70;96.30;;;;;;5014599;28;20287;-78
2022/02/13 07:39:30;;;;;;;9.87;4.13;;;-0.50;96.30;;;;;;4994254;28;20444;-78
2022/02/13 07:41:56;;;;;;;6.50;4.03;;;-0.50;96.30;;;;;;4977824;28;20944;-75
2022/02/13 07:44:25;;;;;;;7.97;4.50;;;-0.30;96.30;;;;;;4994867;28;20420;-76
2022/02/13 07:46:51;;;;;;;9.80;5.80;;;-0.20;96.30;;;;;;4977289;28;20476;-75
2022/02/13 07:49:17;;;;;;;19.17;10.60;;;-0.20;96.30;;;;;;4978018;28;20512;-75
2022/02/13 07:51:46;;;;;;;6.07;4.07;;;0.00;96.30;;;;;;4995232;28;20517;-77
2022/02/13 07:54:12;;;;;;;5.67;3.80;;;0.10;96.30;;;;;;4978209;28;20252;-74
2022/02/13 07:56:38;;;;;;;13.90;8.60;;;0.00;96.30;;;;;;4994754;28;20464;-75
2022/02/13 07:59:03;;;;;;;8.73;5.10;;;0.10;96.30;;;;;;4995328;28;20916;-77
2022/02/13 08:01:29;;;;;;;5.50;3.53;;;0.20;96.30;;;;;;4978085;28;20189;-75
2022/02/13 08:03:54;;;;;;;7.63;4.27;;;0.30;96.30;;;;;;4995270;28;20802;-75
2022/02/13 08:06:20;;;;;;;5.93;3.67;;;0.40;96.30;;;;;;4977387;28;20520;-75
2022/02/13 08:08:47;;;;;;;5.57;3.60;;;0.50;96.30;;;;;;4994831;28;20201;-76
2022/02/13 08:11:13;;;;;;;5.43;3.50;;;0.60;96.30;;;;;;4994743;28;20437;-75
2022/02/13 08:13:39;;;;;;;5.97;4.37;;;0.70;96.30;;;;;;4994851;28;20404;-74
2022/02/13 08:16:05;;;;;;;5.03;4.10;;;0.70;96.30;;;;;;4993720;28;20869;-75
2022/02/13 08:18:31;;;;;;;7.60;4.50;;;0.70;96.30;;;;;;4992833;28;20819;-75
2022/02/13 08:20:57;;;;;;;10.07;4.47;;;0.80;96.30;;;;;;5000564;28;21017;-75
2022/02/13 08:23:24;;;;;;;5.10;3.70;;;0.90;96.30;;;;;;4996503;28;20692;-75
2022/02/13 08:25:49;;;;;;;4.60;3.50;;;0.80;96.30;;;;;;5013425;28;20223;-74
2022/02/13 08:28:16;;;;;;;8.80;7.13;;;0.90;96.30;;;;;;4996591;28;20790;-75
2022/02/13 08:30:41;;;;;;;8.10;4.63;;;1.00;96.30;;;;;;5014008;28;20783;-75
2022/02/13 08:33:07;;;;;;;9.60;4.80;;;1.00;96.30;;;;;;5013928;28;20458;-75
2022/02/13 08:35:34;;;;;;;4.40;3.53;;;1.00;96.30;;;;;;5008918;28;20174;-75
2022/02/13 08:38:03;;;;;;;7.47;4.33;;;1.10;96.30;;;;;;4994218;28;20468;-75
2022/02/13 08:40:30;;;;;;;4.97;4.10;;;1.20;96.30;;;;;;5023742;28;20442;-75
2022/02/13 08:42:58;;;;;;;6.03;3.90;;;1.20;96.30;;;;;;5033445;28;20423;-75
2022/02/13 08:45:24;;;;;;;4.73;3.53;;;1.20;96.30;;;;;;5026665;28;20416;-75
2022/02/13 08:47:50;;;;;;;6.70;4.00;;;1.30;96.30;;;;;;5013574;28;20965;-75
2022/02/13 08:50:15;;;;;;;4.53;3.50;;;1.40;96.30;;;;;;5014655;28;20454;-75
2022/02/13 08:52:41;;;;;;;5.70;3.50;;;1.50;96.30;;;;;;5015740;28;20235;-75
2022/02/13 08:55:07;;;;;;;3.83;2.50;;;1.60;96.30;;;;;;5032734;28;20183;-74
2022/02/13 08:57:33;;;;;;;3.87;2.70;;;1.80;96.30;;;;;;5015728;28;20196;-78
2022/02/13 08:59:59;;;;;;;5.03;2.90;;;1.80;96.30;;;;;;5016230;28;20896;-74
2022/02/13 09:02:24;;;;;;;2.53;2.20;;;1.90;96.30;;;;;;5033850;28;20192;-74
2022/02/13 09:04:50;;;;;;;8.63;2.50;;;2.10;96.30;;;;;;5015727;28;20177;-75
2022/02/13 09:07:15;;;;;;;3.50;2.80;;;2.20;96.30;;;;;;5013016;28;20180;-75
2022/02/13 09:09:43;;;;;;;7.60;3.90;;;2.20;96.30;;;;;;5012989;28;20185;-74
2022/02/13 09:12:09;;;;;;;4.90;3.10;;;2.30;96.30;;;;;;5013717;28;20192;-75
2022/02/13 09:14:34;;;;;;;4.93;2.73;;;2.40;96.30;;;;;;5012267;28;20438;-75
2022/02/13 09:17:00;;;;;;;8.90;2.87;;;2.50;96.30;;;;;;5013990;28;20698;-75
2022/02/13 09:19:25;;;;;;;7.10;4.73;;;2.50;96.30;;;;;;5017005;28;20181;-75
2022/02/13 09:21:53;;;;;;;7.47;5.17;;;2.60;96.30;;;;;;5015661;28;20196;-75
2022/02/13 09:24:20;;;;;;;13.77;6.97;;;2.70;96.30;;;;;;5015218;28;20180;-75
2022/02/13 09:26:45;;;;;;;10.67;6.37;;;2.70;96.30;;;;;;5015317;28;20426;-75
2022/02/13 09:29:11;;;;;;;4.40;3.97;;;2.80;96.30;;;;;;5015103;28;20415;-76
2022/02/13 09:31:37;;;;;;;10.73;6.37;;;2.80;96.30;;;;;;4995297;28;20204;-76
2022/02/13 09:34:02;;;;;;;7.90;2.87;;;2.90;96.30;;;;;;5013111;28;20180;-75
2022/02/13 09:36:27;;;;;;;44.40;21.03;;;2.90;96.30;;;;;;4994750;28;20580;-75
2022/02/13 09:38:54;;;;;;;10.23;4.30;;;3.00;96.30;;;;;;5013061;28;20220;-75
2022/02/13 09:41:19;;;;;;;14.67;8.70;;;3.10;96.30;;;;;;5014171;28;20215;-75
2022/02/13 09:43:45;;;;;;;13.33;7.70;;;3.20;96.30;;;;;;5020943;28;20432;-76
2022/02/13 09:46:14;;;;;;;4.20;2.63;;;3.30;96.30;;;;;;5012493;28;20519;-77
2022/02/13 09:48:40;;;;;;;7.53;4.03;;;3.40;96.30;;;;;;4995450;28;20177;-77
2022/02/13 09:51:06;;;;;;;4.43;2.10;;;3.60;96.30;;;;;;5012658;28;20432;-76
2022/02/13 09:53:35;;;;;;;13.70;8.73;;;3.60;96.30;;;;;;5012639;28;20483;-75
2022/02/13 09:56:09;;;;;;;12.23;7.13;;;3.80;96.30;;;;;;5012391;28;20458;-75
2022/02/13 09:58:35;;;;;;;3.60;2.40;;;3.90;96.30;;;;;;5012914;28;20478;-76
2022/02/13 10:01:04;;;;;;;6.10;2.60;;;3.90;96.30;;;;;;5012875;28;20451;-78
2022/02/13 10:03:31;;;;;;;9.40;6.20;;;4.10;96.30;;;;;;4995116;28;20497;-79
2022/02/13 10:06:01;;;;;;;11.53;5.73;;;4.10;96.30;;;;;;4994229;28;20424;-78
2022/02/13 10:08:27;;;;;;;22.47;12.37;;;4.30;96.30;;;;;;5012351;28;20938;-78
2022/02/13 10:11:12;;;;;;;6.63;4.40;;;4.30;96.30;;;;;;4994570;28;20440;-78
2022/02/13 10:13:43;;;;;;;8.57;4.67;;;4.40;96.30;;;;;;5013135;28;20180;-78
2022/02/13 10:16:19;;;;;;;10.67;6.03;;;4.50;96.30;;;;;;4994831;28;20423;-80
2022/02/13 10:18:52;;;;;;;6.77;3.60;;;4.60;96.30;;;;;;5013640;28;20419;-79
2022/02/13 10:21:38;;;;;;;18.83;7.80;;;4.70;96.30;;;;;;4995180;28;20428;-79
2022/02/13 10:24:29;;;;;;;22.33;11.40;;;4.80;96.30;;;;;;5012641;28;20399;-79
2022/02/13 10:26:57;;;;;;;11.97;6.73;;;5.00;96.30;;;;;;5011996;28;20404;-78
2022/02/13 10:29:29;;;;;;;4.70;3.10;;;5.10;96.30;;;;;;4994607;28;20408;-76
2022/02/13 10:32:10;;;;;;;6.20;3.00;;;5.40;96.30;;;;;;4994758;28;20436;-76
2022/02/13 10:34:36;;;;;;;3.70;2.17;;;6.10;96.30;;;;;;5020669;28;20506;-76
2022/02/13 10:37:02;;;;;;;7.73;3.90;;;6.90;96.30;;;;;;5015165;28;20574;-76
2022/02/13 10:39:28;;;;;;;6.70;3.00;;;7.70;95.90;;;;;;5011835;28;20189;-77
2022/02/13 10:41:54;;;;;;;3.90;2.63;;;8.00;93.90;;;;;;5015749;28;20686;-76
2022/02/13 10:44:28;;;;;;;4.43;2.90;;;8.30;92.70;;;;;;5015293;28;20477;-76
2022/02/13 10:46:54;;;;;;;2.90;2.50;;;8.40;94.60;;;;;;4998301;28;20473;-78
2022/02/13 10:49:21;;;;;;;5.43;2.10;;;8.70;92.80;;;;;;5015785;28;20430;-78
2022/02/13 10:51:47;;;;;;;5.03;2.43;;;8.90;92.60;;;;;;5015695;28;21103;-78
2022/02/13 10:54:12;;;;;;;6.10;2.67;;;8.70;94.10;;;;;;5015571;28;20430;-78
2022/02/13 10:56:38;;;;;;;4.33;3.63;;;9.00;94.30;;;;;;5015197;28;20181;-78
2022/02/13 10:59:13;;;;;;;4.50;2.23;;;9.20;92.00;;;;;;5015592;28;20173;-78
2022/02/13 11:01:40;;;;;;;3.87;1.77;;;9.20;92.90;;;;;;5015629;28;20254;-76
2022/02/13 11:04:06;;;;;;;7.87;2.73;;;9.10;93.20;;;;;;5015514;28;20798;-77
2022/02/13 11:06:39;;;;;;;4.70;2.30;;;9.20;93.90;;;;;;5015099;28;20511;-76
2022/02/13 11:09:23;;;;;;;4.10;2.20;;;9.40;93.60;;;;;;5015408;28;20195;-75
2022/02/13 11:11:51;;;;;;;2.77;1.90;;;9.30;92.90;;;;;;5015292;28;20514;-75
2022/02/13 11:14:30;;;;;;;3.40;2.30;;;9.10;93.90;;;;;;5014830;28;20418;-77
2022/02/13 11:16:56;;;;;;;2.80;1.93;;;9.10;94.30;;;;;;5015339;28;20465;-78
2022/02/13 11:19:22;;;;;;;3.30;1.87;;;8.80;94.30;;;;;;5015173;28;20931;-78
2022/02/13 11:21:48;;;;;;;3.97;1.90;;;8.70;96.30;;;;;;5015101;28;20973;-79
2022/02/13 11:24:28;;;;;;;3.50;2.50;;;8.60;96.10;;;;;;5014723;28;20418;-75
2022/02/13 11:26:59;;;;;;;3.30;1.80;;;8.70;96.30;;;;;;5015245;28;20640;-75
2022/02/13 11:29:55;;;;;;;6.70;2.97;;;8.70;96.20;;;;;;5014859;28;20396;-78
2022/02/13 11:32:39;;;;;;;6.53;2.80;;;8.70;96.30;;;;;;5010351;28;20435;-78
2022/02/13 11:35:07;;;;;;;6.17;2.00;;;9.10;96.30;;;;;;5013835;28;20472;-79
2022/02/13 11:37:50;;;;;;;7.90;2.50;;;9.20;94.90;;;;;;5014970;28;20803;-79
2022/02/13 11:40:36;;;;;;;4.30;1.83;;;9.10;95.80;;;;;;4997832;28;20435;-79
2022/02/13 11:43:03;;;;;;;7.13;2.33;;;8.80;96.30;;;;;;5015313;28;20404;-79
2022/02/13 11:45:42;;;;;;;3.73;2.00;;;8.70;96.30;;;;;;5015750;28;20396;-76
2022/02/13 11:48:33;;;;;;;7.10;2.80;;;8.70;96.30;;;;;;5000090;28;20396;-76
2022/02/13 11:50:58;;;;;;;4.70;2.20;;;8.60;96.30;;;;;;4999172;28;20440;-77
2022/02/13 11:53:27;;;;;;;5.70;2.10;;;8.50;96.30;;;;;;5015985;28;20461;-76
2022/02/13 11:55:53;;;;;;;4.80;2.90;;;8.50;96.30;;;;;;5015276;28;20175;-78
2022/02/13 11:58:18;;;;;;;8.33;3.30;;;8.50;96.30;;;;;;4998517;28;20858;-76
2022/02/13 12:00:48;;;;;;;6.23;2.30;;;8.70;96.30;;;;;;4998072;28;20184;-80
2022/02/13 12:03:15;;;;;;;5.40;2.40;;;8.80;96.30;;;;;;5015228;28;20169;-80
2022/02/13 12:05:40;;;;;;;2.80;1.90;;;8.90;96.30;;;;;;4995359;28;20428;-80
2022/02/13 12:08:06;;;;;;;3.73;2.10;;;8.80;96.30;;;;;;5002600;28;20416;-79
2022/02/13 12:10:36;;;;;;;6.53;2.40;;;8.60;96.30;;;;;;5012387;28;20203;-79
2022/02/13 12:13:11;;;;;;;4.63;2.13;;;8.70;96.30;;;;;;5013938;28;20688;-79
2022/02/13 12:15:38;;;;;;;4.30;2.60;;;8.70;96.30;;;;;;5013556;28;20439;-79
2022/02/13 12:18:14;;;;;;;5.03;2.80;;;8.70;96.30;;;;;;4995993;28;20459;-76
2022/02/13 12:20:41;;;;;;;5.13;2.30;;;8.50;96.30;;;;;;5013939;28;20522;-79
2022/02/13 12:23:12;;;;;;;3.23;2.47;;;8.60;96.30;;;;;;4997646;28;20411;-80
2022/02/13 12:25:41;;;;;;;7.43;2.53;;;8.70;96.30;;;;;;4996600;28;20434;-79
2022/02/13 12:28:07;;;;;;;7.60;2.40;;;8.90;96.30;;;;;;5014622;28;20411;-79
2022/02/13 12:38:19;;;;;;;3.50;2.27;;;9.10;96.30;;;;;;5655798;23;20491;-78
2022/02/13 12:40:45;;;;;;;6.17;2.53;;;9.10;96.30;;;;;;5013672;28;20424;-76
2022/02/13 12:43:16;;;;;;;5.07;2.30;;;9.00;96.30;;;;;;5013696;28;20181;-76
2022/02/13 12:45:43;;;;;;;5.63;2.47;;;8.90;96.30;;;;;;5013349;28;20404;-76
2022/02/13 12:48:11;;;;;;;3.93;2.20;;;8.90;96.30;;;;;;5013627;28;20826;-76
2022/02/13 12:50:49;;;;;;;4.67;2.03;;;9.10;96.30;;;;;;5013382;28;20938;-76
2022/02/13 12:53:19;;;;;;;3.37;2.10;;;9.00;96.30;;;;;;5013463;28;20426;-76
2022/02/13 12:55:45;;;;;;;6.80;2.43;;;8.90;96.30;;;;;;5013518;28;20392;-76
2022/02/13 12:58:11;;;;;;;8.20;2.70;;;8.70;96.30;;;;;;5013309;28;20463;-76
2022/02/13 13:00:51;;;;;;;6.87;2.67;;;8.60;96.30;;;;;;5013438;28;20970;-76
2022/02/13 13:03:29;;;;;;;5.37;3.43;;;8.70;96.30;;;;;;5013001;28;20443;-76
2022/02/13 13:05:55;;;;;;;6.20;2.60;;;8.70;96.30;;;;;;4995566;28;20451;-76
2022/02/13 13:08:22;;;;;;;5.43;2.30;;;8.60;96.30;;;;;;5013327;28;20419;-76
2022/02/13 13:10:54;;;;;;;5.07;2.10;;;8.70;96.30;;;;;;4995447;28;20435;-76
2022/02/13 13:13:31;;;;;;;8.67;3.27;;;8.80;96.30;;;;;;5013179;28;20404;-76
2022/02/13 13:16:03;;;;;;;5.97;2.53;;;8.70;96.30;;;;;;5012953;28;20487;-77
2022/02/13 13:18:37;;;;;;;6.83;2.67;;;8.70;96.30;;;;;;4995329;28;20460;-76
2022/02/13 13:21:16;;;;;;;3.60;2.20;;;8.30;96.30;;;;;;5013004;28;20477;-76
2022/02/13 13:23:54;;;;;;;8.70;2.87;;;8.20;96.30;;;;;;5012969;28;20407;-76
2022/02/13 13:26:19;;;;;;;4.63;2.30;;;8.20;96.30;;;;;;4995022;28;20514;-77
2022/02/13 13:28:44;;;;;;;6.53;2.33;;;8.40;96.30;;;;;;4995306;28;20519;-77
2022/02/13 13:31:10;;;;;;;5.93;2.23;;;8.30;96.30;;;;;;5012761;28;20537;-76
2022/02/13 13:33:35;;;;;;;4.93;2.60;;;8.30;96.30;;;;;;5012941;28;20183;-76
2022/02/13 13:36:01;;;;;;;6.30;3.03;;;8.30;96.30;;;;;;5012506;28;20180;-77
2022/02/13 13:38:34;;;;;;;4.93;2.70;;;8.30;96.30;;;;;;5012527;28;20251;-77
2022/02/13 13:41:04;;;;;;;5.60;2.80;;;8.50;96.30;;;;;;5012591;28;20327;-76
2022/02/13 13:43:30;;;;;;;9.60;3.40;;;8.60;96.30;;;;;;5012707;28;20455;-76
2022/02/13 13:45:55;;;;;;;5.27;2.80;;;8.60;96.30;;;;;;5012421;28;20870;-76
2022/02/13 13:48:20;;;;;;;4.53;2.60;;;8.40;96.30;;;;;;4994881;28;20185;-76
2022/02/13 13:50:48;;;;;;;6.00;2.43;;;8.50;96.30;;;;;;5012542;28;20673;-76
2022/02/13 13:53:16;;;;;;;7.37;2.70;;;8.40;96.30;;;;;;4994887;28;20597;-76
2022/02/13 13:55:44;;;;;;;8.30;2.40;;;8.50;96.30;;;;;;5012098;28;20495;-76
2022/02/13 13:58:11;;;;;;;6.33;2.90;;;8.60;96.30;;;;;;5012440;28;20464;-76
2022/02/13 14:00:37;;;;;;;5.17;2.70;;;8.60;96.30;;;;;;5012307;28;20428;-76
2022/02/13 14:03:04;;;;;;;6.70;2.63;;;8.60;96.30;;;;;;4994752;28;20481;-76
2022/02/13 14:05:32;;;;;;;9.97;3.60;;;8.50;96.30;;;;;;5012053;28;20419;-77
2022/02/13 14:07:58;;;;;;;2.80;2.10;;;8.50;96.30;;;;;;4994630;28;20515;-75
2022/02/13 14:10:24;;;;;;;4.90;2.37;;;8.60;96.30;;;;;;5012158;28;20904;-77
2022/02/13 14:12:52;;;;;;;7.23;2.90;;;8.80;96.30;;;;;;5012225;28;20916;-77
2022/02/13 14:15:18;;;;;;;4.87;2.60;;;9.00;96.30;;;;;;5011343;28;20511;-76
2022/02/13 14:17:44;;;;;;;4.50;2.70;;;8.90;96.30;;;;;;5011998;28;20558;-76
2022/02/13 14:20:10;;;;;;;6.93;3.03;;;8.70;96.30;;;;;;5012202;28;20169;-76
2022/02/13 14:22:35;;;;;;;9.27;3.13;;;8.60;96.30;;;;;;4994480;28;20450;-76
2022/02/13 14:25:01;;;;;;;6.67;2.60;;;8.40;96.30;;;;;;4994231;28;20187;-76
2022/02/13 14:27:27;;;;;;;5.83;2.67;;;8.30;96.30;;;;;;5012173;28;20541;-76
2022/02/13 14:29:52;;;;;;;3.83;2.60;;;8.30;96.30;;;;;;5012231;28;20181;-76
2022/02/13 14:32:18;;;;;;;7.30;2.47;;;8.40;96.30;;;;;;4994336;28;20200;-76
2022/02/13 14:34:44;;;;;;;8.17;2.90;;;8.50;96.30;;;;;;4994156;28;20191;-76
2022/02/13 14:37:09;;;;;;;4.30;2.93;;;8.40;96.30;;;;;;5011849;28;20462;-76
2022/02/13 14:39:35;;;;;;;6.40;2.30;;;8.20;96.30;;;;;;4994478;28;20324;-76
2022/02/13 14:42:01;;;;;;;5.43;2.30;;;8.20;96.30;;;;;;5011950;28;20531;-77
2022/02/13 14:44:27;;;;;;;5.30;2.93;;;8.10;96.30;;;;;;4994146;28;20503;-77
2022/02/13 14:46:52;;;;;;;5.57;2.57;;;8.20;96.30;;;;;;5011916;28;20424;-76
2022/02/13 14:49:18;;;;;;;5.17;2.73;;;8.10;96.30;;;;;;5011817;28;20177;-76
2022/02/13 14:51:43;;;;;;;7.20;3.23;;;8.00;96.30;;;;;;4994277;28;20227;-76
2022/02/13 14:54:09;;;;;;;5.93;2.63;;;7.80;96.30;;;;;;5011882;28;20537;-77
2022/02/13 14:56:35;;;;;;;3.70;2.50;;;7.90;96.30;;;;;;5011597;28;20187;-76
2022/02/13 14:59:01;;;;;;;24.97;3.97;;;7.90;96.30;;;;;;5011939;28;20522;-76
2022/02/13 15:01:27;;;;;;;8.53;3.10;;;7.90;96.30;;;;;;4994170;28;20193;-76
2022/02/13 15:03:53;;;;;;;6.60;3.00;;;7.90;96.30;;;;;;5011866;28;20404;-76
2022/02/13 15:06:19;;;;;;;9.20;3.17;;;7.70;96.30;;;;;;5011617;28;20407;-76
2022/02/13 15:08:45;;;;;;;8.90;2.90;;;7.60;96.30;;;;;;4994376;28;20419;-76
2022/02/13 15:11:12;;;;;;;4.20;3.00;;;7.70;96.30;;;;;;5011741;28;20435;-76
2022/02/13 15:13:38;;;;;;;12.00;5.00;;;7.40;96.30;;;;;;5011814;28;20724;-77
2022/02/13 15:16:04;;;;;;;13.47;7.20;;;7.30;96.30;;;;;;4993956;28;20435;-77
2022/02/13 15:18:30;;;;;;;6.30;3.80;;;7.10;96.30;;;;;;4993882;28;20482;-77
2022/02/13 15:20:56;;;;;;;15.77;8.53;;;7.00;96.30;;;;;;5011580;28;20963;-76
2022/02/13 15:23:22;;;;;;;14.03;12.53;;;6.90;96.30;;;;;;5011717;28;20408;-76
2022/02/13 15:25:49;;;;;;;7.77;4.40;;;6.90;96.30;;;;;;5012087;28;20173;-76
2022/02/13 15:28:15;;;;;;;11.10;5.90;;;6.80;96.30;;;;;;4997635;28;20415;-75
2022/02/13 15:30:41;;;;;;;11.17;7.20;;;6.70;96.30;;;;;;4997504;28;20538;-76
2022/02/13 15:33:07;;;;;;;14.93;10.43;;;6.60;96.30;;;;;;5014969;28;20491;-76
2022/02/13 15:35:33;;;;;;;17.60;12.47;;;6.50;96.30;;;;;;4997084;28;20204;-77
2022/02/13 15:37:59;;;;;;;16.60;9.60;;;6.40;96.30;;;;;;4997138;28;20263;-76
2022/02/13 15:40:25;;;;;;;5.50;4.00;;;6.30;96.30;;;;;;5014865;28;20412;-77
2022/02/13 15:42:50;;;;;;;6.00;4.80;;;6.20;96.30;;;;;;5014972;28;20184;-76
2022/02/13 15:45:16;;;;;;;6.33;4.10;;;6.10;96.30;;;;;;5014685;28;20184;-76
2022/02/13 15:47:42;;;;;;;5.73;2.90;;;6.00;96.30;;;;;;5014739;28;20252;-76
2022/02/13 15:50:08;;;;;;;8.03;3.33;;;6.00;96.30;;;;;;5014670;28;20173;-76
2022/02/13 15:52:34;;;;;;;7.03;3.60;;;6.00;96.30;;;;;;5014582;28;20272;-76
2022/02/13 15:54:59;;;;;;;5.93;2.93;;;5.80;96.30;;;;;;4996841;28;20506;-76
2022/02/13 15:57:25;;;;;;;11.83;3.00;;;5.60;96.30;;;;;;5014531;28;20672;-76
2022/02/13 15:59:54;;;;;;;10.20;2.87;;;5.40;96.30;;;;;;5014631;28;20212;-76
2022/02/13 16:02:20;;;;;;;5.20;2.70;;;5.30;96.30;;;;;;5014323;28;20551;-76
2022/02/13 16:04:47;;;;;;;9.17;3.27;;;5.20;96.30;;;;;;5014168;28;20408;-77
2022/02/13 16:07:12;;;;;;;8.50;3.40;;;5.10;96.30;;;;;;5014489;28;20222;-76
2022/02/13 16:09:38;;;;;;;6.43;3.10;;;5.00;96.30;;;;;;5014368;28;20518;-76
2022/02/13 16:12:08;;;;;;;12.73;7.23;;;4.80;96.30;;;;;;5014319;28;20272;-76
2022/02/13 16:14:33;;;;;;;7.10;3.67;;;4.70;96.30;;;;;;4997244;28;20173;-75
2022/02/13 16:16:59;;;;;;;8.23;4.80;;;4.60;96.30;;;;;;5014753;28;20535;-78
2022/02/13 16:19:26;;;;;;;16.83;8.40;;;4.50;96.30;;;;;;4997876;28;20181;-78
2022/02/13 16:21:52;;;;;;;17.07;11.27;;;4.50;96.30;;;;;;5014585;28;20282;-76
2022/02/13 16:24:18;;;;;;;8.00;5.20;;;4.40;96.30;;;;;;5014092;28;20441;-79
2022/02/13 16:26:44;;;;;;;8.23;4.53;;;4.20;96.30;;;;;;4996542;28;20173;-78
2022/02/13 16:29:10;;;;;;;10.00;4.73;;;4.20;96.30;;;;;;5014117;28;20169;-78
2022/02/13 16:31:37;;;;;;;8.40;4.60;;;4.10;96.30;;;;;;5013842;28;20519;-78
2022/02/13 16:34:07;;;;;;;6.70;4.77;;;4.00;96.30;;;;;;5013822;28;20866;-78
2022/02/13 16:36:33;;;;;;;8.67;5.07;;;3.90;96.30;;;;;;5013665;28;20411;-78
2022/02/13 16:39:01;;;;;;;13.17;5.70;;;3.80;96.30;;;;;;5012971;28;20435;-78
2022/02/13 16:41:27;;;;;;;10.30;5.33;;;3.70;96.30;;;;;;5013830;28;20432;-78
2022/02/13 16:43:55;;;;;;;8.17;4.30;;;3.70;96.30;;;;;;4996143;28;20428;-78
2022/02/13 16:46:21;;;;;;;10.33;5.30;;;3.60;96.30;;;;;;5013461;28;20434;-78
2022/02/13 16:48:48;;;;;;;7.87;4.60;;;3.50;96.30;;;;;;5013645;28;20423;-76
2022/02/13 16:51:14;;;;;;;8.80;5.53;;;3.40;96.30;;;;;;5013467;28;20447;-76
2022/02/13 16:53:43;;;;;;;8.47;6.10;;;3.40;96.30;;;;;;5013606;28;20501;-76
2022/02/13 16:56:10;;;;;;;9.00;5.50;;;3.30;96.30;;;;;;5013247;28;20550;-76
2022/02/13 16:58:36;;;;;;;11.50;6.03;;;3.30;96.30;;;;;;4995635;28;20546;-77
2022/02/13 17:01:04;;;;;;;10.93;6.60;;;3.10;96.30;;;;;;4995563;28;20427;-77
2022/02/13 17:03:30;;;;;;;18.03;10.00;;;3.10;96.30;;;;;;5013031;28;20457;-77
2022/02/13 17:05:56;;;;;;;20.33;13.10;;;3.00;96.30;;;;;;5013479;28;20408;-76
2022/02/13 17:08:22;;;;;;;19.30;14.13;;;2.90;96.30;;;;;;4996027;28;20422;-76
2022/02/13 17:10:52;;;;;;;11.77;6.77;;;2.80;96.30;;;;;;4996063;28;20208;-76
2022/02/13 17:13:19;;;;;;;10.57;5.93;;;2.80;96.30;;;;;;5013749;28;20396;-76
2022/02/13 17:15:45;;;;;;;12.00;7.57;;;2.80;96.30;;;;;;5012770;28;20415;-75
2022/02/13 17:18:11;;;;;;;13.90;8.53;;;2.80;96.30;;;;;;4995363;28;20452;-76
2022/02/13 17:20:36;;;;;;;18.00;10.10;;;2.80;96.30;;;;;;4996132;28;20435;-76
2022/02/13 17:23:01;;;;;;;18.90;9.43;;;2.60;96.30;;;;;;5013562;28;20239;-76
2022/02/13 17:25:27;;;;;;;25.07;15.43;;;2.50;96.30;;;;;;5013795;28;20187;-76